METAR AND TAF INFORMATION
METAR FOR LIPR
ADDS - METARS form results

(2317 UTC 19 September 2019)
Data provider http://aviationweather.gov/metar/data/
 
METAR text: LIPR 192250Z AUTO 04010KT 010V080 9999 NCD 19/09 Q1023
Conditions at: LIPR (RIMINI (CIV/IT-A, IT) observed 2250 UTC 19 September 2019
Temperature: 19.0°C (66°F)
Dewpoint: 9.0°C (48°F) [RH = 52%]
Pressure (altimeter): 30.21 inches Hg (1023.0 mb)
Winds: from the NE (40 degrees) at 12 MPH (10 knots; 5.1 m/s)
Visibility: 6 or more miles (10+ km)
Ceiling: at least 12,000 feet AGL
Clouds: sky clear below 12,000 feet AGL
Weather: no significant weather observed at this time

METAR text: LIPR 192220Z AUTO 04010KT 020V080 9999 NCD 20/10 Q1023
Conditions at: LIPR (RIMINI (CIV/IT-A, IT) observed 2220 UTC 19 September 2019
Temperature: 20.0°C (68°F)
Dewpoint: 10.0°C (50°F) [RH = 53%]
Pressure (altimeter): 30.21 inches Hg (1023.0 mb)
Winds: from the NE (40 degrees) at 12 MPH (10 knots; 5.1 m/s)
Visibility: 6 or more miles (10+ km)
Ceiling: at least 12,000 feet AGL
Clouds: sky clear below 12,000 feet AGL
Weather: no significant weather observed at this time

Forecast for: LIPR (RIMINI (CIV/IT-A, IT)
Text: TAF LIPR 192000Z 1921/2006 04006KT CAVOK
Forecast period: 2100 UTC 19 September 2019 to 0600 UTC 20 September 2019
Forecast type: FROM: standard forecast or significant change
Winds: from the NE (40 degrees) at 7 MPH (6 knots; 3.1 m/s)
Visibility: 6 or more miles 10+ km)
Ceiling: unknown
Clouds: missing
Weather: NSW  (no significant weather)

 AIRPORT MAP

 RUNWAY INFORMATION
Runway 13 Runway length 9828 ft Runway width 148 ft
Runway elevation 21 ft Runway displaced threshold 1030 ft Runway heading 128
Runway 31 Runway length 9828 ft Runway width 148 ft
Runway elevation 39 ft Runway displaced threshold 1006 ft Runway heading 308

 AIRPORT FREQUENCIES
Type APP Name ROMAGNA AP Frequency 36.23 MHZ
Type APP Name ROMAGNA AP Frequency 118.15 MHZ
Type GCCD Name GND/CLNC D Frequency 121.6 MHZ
Type TWR Name TWR Frequency 119.1 MHZ

 AIRPORT NEAR NAVIGATION AIDS
Type VORTAC Name Rimini Frequency 116200 KHZ
Type NDB Name Rimini Frequency 335 KHZ